createdAt,value
2023-03-06T00:00:57.839Z,0.56
2023-03-06T00:03:01.213Z,0.53
2023-03-06T00:05:04.633Z,0.52
2023-03-06T00:07:07.885Z,0.53
2023-03-06T00:09:11.070Z,0.54
2023-03-06T00:11:15.529Z,0.54
2023-03-06T00:13:20.407Z,0.53
2023-03-06T00:15:24.802Z,0.53
2023-03-06T00:17:29.268Z,0.53
2023-03-06T00:19:32.473Z,0.53
2023-03-06T00:21:35.694Z,0.52
2023-03-06T00:23:39.289Z,0.52
2023-03-06T00:25:44.189Z,0.50
2023-03-06T00:27:53.545Z,0.49
2023-03-06T00:30:00.023Z,0.49
2023-03-06T00:32:03.692Z,0.48
2023-03-06T00:34:07.165Z,0.48
2023-03-06T00:36:11.114Z,0.46
2023-03-06T00:38:16.532Z,0.46
2023-03-06T00:40:22.095Z,0.45
2023-03-06T00:42:25.584Z,0.44
2023-03-06T00:44:28.984Z,0.43
2023-03-06T00:46:33.817Z,0.43
2023-03-06T00:48:38.316Z,0.43
2023-03-06T00:50:41.760Z,0.41
2023-03-06T00:52:45.256Z,0.37
2023-03-06T00:54:48.647Z,0.33
2023-03-06T00:56:52.071Z,0.30
2023-03-06T00:58:55.604Z,0.28
2023-03-06T01:01:02.021Z,0.27
2023-03-06T01:03:06.851Z,0.27
2023-03-06T01:05:10.564Z,0.29
2023-03-06T01:07:14.306Z,0.31
2023-03-06T01:09:18.005Z,0.32
2023-03-06T01:11:22.565Z,0.32
2023-03-06T01:13:25.985Z,0.34
2023-03-06T01:15:29.426Z,0.34
2023-03-06T01:17:34.491Z,0.33
2023-03-06T01:19:40.661Z,0.36
2023-03-06T01:21:44.093Z,0.36
2023-03-06T01:23:47.580Z,0.34
2023-03-06T01:25:51.027Z,0.36
2023-03-06T01:27:56.793Z,0.36
2023-03-06T01:30:00.261Z,0.37
2023-03-06T01:32:03.909Z,0.36
2023-03-06T01:34:07.422Z,0.36
2023-03-06T01:36:14.056Z,0.34
2023-03-06T01:38:17.470Z,0.33
2023-03-06T01:40:21.400Z,0.34
2023-03-06T01:42:24.951Z,0.36
2023-03-06T01:44:28.425Z,0.37
2023-03-06T01:46:38.905Z,0.39
2023-03-06T01:48:42.480Z,0.38
2023-03-06T01:50:46.202Z,0.39
2023-03-06T01:52:54.565Z,0.40
2023-03-06T01:55:03.988Z,0.43
2023-03-06T01:57:13.336Z,0.44
2023-03-06T01:59:17.781Z,0.43
2023-03-06T02:01:21.601Z,0.44
2023-03-06T02:03:27.752Z,0.43
2023-03-06T02:05:31.546Z,0.43
2023-03-06T02:07:35.794Z,0.44
2023-03-06T02:09:40.904Z,0.45
2023-03-06T02:11:45.552Z,0.42
2023-03-06T02:13:51.183Z,0.41
2023-03-06T02:15:55.009Z,0.40
2023-03-06T02:17:58.671Z,0.39
2023-03-06T02:20:09.486Z,0.39
2023-03-06T02:22:13.163Z,0.39
2023-03-06T02:24:35.929Z,0.38
2023-03-06T02:26:43.727Z,0.37
2023-03-06T02:28:47.320Z,0.35
2023-03-06T02:30:53.616Z,0.34
2023-03-06T02:32:57.177Z,0.33
2023-03-06T02:35:01.015Z,0.32
2023-03-06T02:37:08.999Z,0.32
2023-03-06T02:39:14.638Z,0.31
2023-03-06T02:41:18.777Z,0.30
2023-03-06T02:43:29.753Z,0.28
2023-03-06T02:45:37.102Z,0.28
2023-03-06T02:47:40.634Z,0.29
2023-03-06T02:49:44.428Z,0.30
2023-03-06T02:51:47.941Z,0.31
2023-03-06T02:53:51.579Z,0.31
2023-03-06T02:55:55.083Z,0.31
2023-03-06T02:57:58.571Z,0.30
2023-03-06T03:00:03.899Z,0.29
2023-03-06T03:02:07.822Z,0.30
2023-03-06T03:04:11.428Z,0.29
2023-03-06T03:06:16.380Z,0.30
2023-03-06T03:08:20.644Z,0.31
2023-03-06T03:10:27.050Z,0.32
2023-03-06T03:12:30.631Z,0.32
2023-03-06T03:14:34.379Z,0.33
2023-03-06T03:16:40.700Z,0.33
2023-03-06T03:18:47.836Z,0.33
2023-03-06T03:20:53.051Z,0.32
2023-03-06T03:22:57.494Z,0.31
2023-03-06T03:25:00.935Z,0.30
2023-03-06T03:27:04.599Z,0.28
2023-03-06T03:29:08.166Z,0.27
2023-03-06T03:31:13.132Z,0.26
2023-03-06T03:33:17.979Z,0.24
2023-03-06T03:35:21.663Z,0.23
2023-03-06T03:37:25.259Z,0.22
2023-03-06T03:39:28.860Z,0.20
2023-03-06T03:41:34.149Z,0.18
2023-03-06T03:43:39.858Z,0.17
2023-03-06T03:45:43.383Z,0.17
2023-03-06T03:47:47.126Z,0.13
2023-03-06T03:49:51.997Z,0.13
2023-03-06T03:51:56.967Z,0.10
2023-03-06T03:54:02.710Z,0.08
2023-03-06T03:56:13.272Z,0.06
2023-03-06T03:58:25.448Z,0.04
2023-03-06T04:00:28.881Z,0.02
2023-03-06T04:02:43.968Z,-0.02
2023-03-06T04:04:57.974Z,-0.04
2023-03-06T04:07:01.769Z,-0.06
2023-03-06T04:09:06.076Z,-0.08
2023-03-06T04:11:11.220Z,-0.11
2023-03-06T04:13:14.760Z,-0.13
2023-03-06T04:15:20.517Z,-0.15
2023-03-06T04:17:25.820Z,-0.16
2023-03-06T04:19:30.544Z,-0.18
2023-03-06T04:21:36.410Z,-0.19
2023-03-06T04:23:39.892Z,-0.22
2023-03-06T04:25:43.445Z,-0.22
2023-03-06T04:27:48.432Z,-0.24
2023-03-06T04:29:54.174Z,-0.25
2023-03-06T04:31:57.730Z,-0.25
2023-03-06T04:34:01.379Z,-0.26
2023-03-06T04:36:05.377Z,-0.25
2023-03-06T04:38:11.343Z,-0.26
2023-03-06T04:40:20.480Z,-0.27
2023-03-06T04:42:24.164Z,-0.28
2023-03-06T04:44:27.623Z,-0.28
2023-03-06T04:46:31.133Z,-0.30
2023-03-06T04:48:36.482Z,-0.32
2023-03-06T04:50:39.942Z,-0.37
2023-03-06T04:52:43.640Z,-0.40
2023-03-06T04:54:48.500Z,-0.42
2023-03-06T04:56:51.983Z,-0.45
2023-03-06T04:58:55.536Z,-0.47
2023-03-06T05:00:59.027Z,-0.49
2023-03-06T05:03:03.150Z,-0.52
2023-03-06T05:05:07.323Z,-0.54
2023-03-06T05:07:11.194Z,-0.56
2023-03-06T05:09:14.630Z,-0.60
2023-03-06T05:11:19.540Z,-0.62
2023-03-06T05:13:23.008Z,-0.63
2023-03-06T05:15:26.383Z,-0.65
2023-03-06T05:17:30.472Z,-0.68
2023-03-06T05:19:33.908Z,-0.71
2023-03-06T05:21:37.418Z,-0.75
2023-03-06T05:23:41.107Z,-0.78
2023-03-06T05:25:44.557Z,-0.81
2023-03-06T05:27:49.451Z,-0.83
2023-03-06T05:29:52.929Z,-0.87
2023-03-06T05:31:56.437Z,-0.88
2023-03-06T05:34:00.787Z,-0.90
2023-03-06T05:36:04.804Z,-0.92
2023-03-06T05:38:08.204Z,-0.94
2023-03-06T05:40:13.173Z,-0.96
2023-03-06T05:42:16.720Z,-0.97
2023-03-06T05:44:23.959Z,-0.97
2023-03-06T05:46:27.423Z,-0.95
2023-03-06T05:48:30.904Z,-0.94
2023-03-06T05:50:34.769Z,-0.96
2023-03-06T05:52:38.227Z,-0.96
2023-03-06T05:54:41.834Z,-0.97
2023-03-06T05:56:45.364Z,-0.99
2023-03-06T05:58:49.015Z,-1.00
2023-03-06T06:00:54.021Z,-1.02
2023-03-06T06:02:57.511Z,-1.02
2023-03-06T06:05:02.245Z,-1.02
2023-03-06T06:07:06.257Z,-0.99
2023-03-06T06:09:12.277Z,-0.97
2023-03-06T06:11:18.349Z,-0.93
2023-03-06T06:13:21.883Z,-0.89
2023-03-06T06:15:28.057Z,-0.86
2023-03-06T06:17:33.006Z,-0.81
2023-03-06T06:19:36.564Z,-0.74
2023-03-06T06:21:40.042Z,-0.70
2023-03-06T06:23:44.370Z,-0.64
2023-03-06T06:25:47.809Z,-0.58
2023-03-06T06:27:51.326Z,-0.51
2023-03-06T06:29:54.779Z,-0.46
2023-03-06T06:31:58.394Z,-0.41
2023-03-06T06:34:03.534Z,-0.37
2023-03-06T06:36:07.542Z,-0.32
2023-03-06T06:38:10.961Z,-0.28
2023-03-06T06:40:14.968Z,-0.25
2023-03-06T06:42:31.952Z,-0.22
2023-03-06T06:44:37.827Z,-0.19
2023-03-06T06:49:08.844Z,-0.17
2023-03-06T06:51:13.166Z,-0.14
2023-03-06T06:53:16.964Z,-0.12
2023-03-06T06:55:20.491Z,-0.06
2023-03-06T06:57:24.084Z,-0.01
2023-03-06T06:59:27.584Z,0.04
2023-03-06T07:01:31.125Z,0.10
2023-03-06T07:03:34.714Z,0.15
2023-03-06T07:05:39.712Z,0.19
2023-03-06T07:07:44.948Z,0.23
2023-03-06T07:09:48.514Z,0.25
2023-03-06T07:11:52.410Z,0.27
2023-03-06T07:13:56.176Z,0.30
2023-03-06T07:15:59.592Z,0.32
2023-03-06T07:18:03.102Z,0.33
2023-03-06T07:20:07.255Z,0.38
2023-03-06T07:22:12.074Z,0.40
2023-03-06T07:24:15.537Z,0.42
2023-03-06T07:26:18.961Z,0.43
2023-03-06T07:28:22.804Z,0.45
2023-03-06T07:30:26.374Z,0.45
2023-03-06T07:32:29.881Z,0.46
2023-03-06T07:34:33.376Z,0.47
2023-03-06T07:36:36.937Z,0.44
2023-03-06T07:38:41.790Z,0.42
2023-03-06T07:40:45.305Z,0.45
2023-03-06T07:42:49.279Z,0.50
2023-03-06T07:44:56.592Z,0.54
2023-03-06T07:47:00.060Z,0.58
2023-03-06T07:49:03.540Z,0.62
2023-03-06T07:51:09.649Z,0.69
2023-03-06T07:53:13.065Z,0.78
2023-03-06T07:55:18.124Z,0.88
2023-03-06T07:57:21.618Z,0.97
2023-03-06T07:59:25.727Z,1.09
2023-03-06T08:01:29.237Z,1.20
2023-03-06T08:03:32.829Z,1.27
2023-03-06T08:05:36.316Z,1.30
2023-03-06T08:07:39.710Z,1.29
2023-03-06T08:09:43.192Z,1.28
2023-03-06T08:11:48.165Z,1.27
2023-03-06T08:13:52.820Z,1.26
2023-03-06T08:15:56.829Z,1.28
2023-03-06T08:18:00.306Z,1.29
2023-03-06T08:20:03.769Z,1.33
2023-03-06T08:22:07.651Z,1.39
2023-03-06T08:24:12.983Z,1.42
2023-03-06T08:26:18.639Z,1.43
2023-03-06T08:28:23.429Z,1.46
2023-03-06T08:30:26.887Z,1.46
2023-03-06T08:32:30.588Z,1.49
2023-03-06T08:34:33.989Z,1.48
2023-03-06T08:36:37.724Z,1.44
2023-03-06T08:38:41.200Z,1.42
2023-03-06T08:40:44.600Z,1.39
2023-03-06T08:42:49.380Z,1.39
2023-03-06T08:44:54.204Z,1.41
2023-03-06T08:46:57.587Z,1.43
2023-03-06T08:49:01.217Z,1.46
2023-03-06T08:51:04.896Z,1.53
2023-03-06T08:53:08.303Z,1.59
2023-03-06T08:55:14.145Z,1.65
2023-03-06T08:57:19.184Z,1.67
2023-03-06T08:59:22.549Z,1.66
2023-03-06T09:01:29.859Z,1.67
2023-03-06T09:03:33.354Z,1.69
2023-03-06T09:05:36.860Z,1.70
2023-03-06T09:07:40.326Z,1.68
2023-03-06T09:09:43.857Z,1.63
2023-03-06T09:11:47.302Z,1.59
2023-03-06T09:13:50.798Z,1.58
2023-03-06T09:15:54.284Z,1.59
2023-03-06T09:17:59.282Z,1.63
2023-03-06T09:20:02.805Z,1.72
2023-03-06T09:22:06.284Z,1.81
2023-03-06T09:24:10.280Z,1.92
2023-03-06T09:26:13.993Z,2.02
2023-03-06T09:28:17.993Z,2.10
2023-03-06T09:30:21.750Z,2.15
2023-03-06T09:32:25.806Z,2.17
2023-03-06T09:34:30.685Z,2.19
2023-03-06T09:36:45.708Z,2.20
2023-03-06T09:38:57.046Z,2.18
2023-03-06T09:43:20.781Z,2.16
2023-03-06T09:45:24.393Z,2.21
2023-03-06T09:47:48.598Z,2.25
2023-03-06T09:50:13.001Z,2.27
2023-03-06T09:52:32.036Z,2.32
2023-03-06T09:54:42.967Z,2.35
2023-03-06T09:56:50.340Z,2.41
2023-03-06T09:58:57.225Z,2.52
2023-03-06T10:01:04.953Z,2.66
2023-03-06T10:03:23.522Z,2.78
2023-03-06T10:05:36.351Z,2.89
2023-03-06T10:07:46.839Z,2.97
2023-03-06T10:09:55.196Z,3.04
2023-03-06T10:12:01.981Z,3.09
2023-03-06T10:14:19.019Z,3.10
2023-03-06T10:16:29.549Z,3.12
2023-03-06T10:18:33.497Z,3.14
2023-03-06T10:20:47.244Z,3.20
2023-03-06T10:23:24.265Z,3.27
2023-03-06T10:25:29.330Z,3.29
2023-03-06T10:27:44.157Z,3.26
2023-03-06T10:30:02.671Z,3.31
2023-03-06T10:32:17.539Z,3.41
2023-03-06T10:34:23.471Z,3.51
2023-03-06T10:36:29.955Z,3.61
2023-03-06T10:38:37.846Z,3.69
2023-03-06T10:40:48.578Z,3.75
2023-03-06T10:42:58.768Z,3.74
2023-03-06T10:45:15.253Z,3.72
2023-03-06T10:47:30.108Z,3.70
2023-03-06T10:49:35.562Z,3.70
2023-03-06T10:51:40.689Z,3.70
2023-03-06T10:53:52.323Z,3.68
2023-03-06T10:55:56.734Z,3.67
2023-03-06T10:58:18.487Z,3.75
2023-03-06T11:00:26.880Z,3.87
2023-03-06T11:02:33.393Z,4.01
2023-03-06T11:04:38.953Z,4.17
2023-03-06T11:06:44.659Z,4.25
2023-03-06T11:08:48.157Z,4.21
2023-03-06T11:11:00.625Z,4.12
2023-03-06T11:13:07.575Z,4.03
2023-03-06T11:15:21.127Z,3.95
2023-03-06T11:17:29.559Z,3.86
2023-03-06T11:19:33.361Z,3.73
2023-03-06T11:21:40.022Z,3.63
2023-03-06T11:23:47.519Z,3.59
2023-03-06T11:25:56.329Z,3.58
2023-03-06T11:28:04.677Z,3.60
2023-03-06T11:30:18.853Z,3.61
2023-03-06T11:32:25.194Z,3.64
2023-03-06T11:34:40.666Z,3.75
2023-03-06T11:36:49.957Z,3.94
2023-03-06T11:38:56.143Z,4.15
2023-03-06T11:41:02.436Z,4.32
2023-03-06T11:43:19.184Z,4.44
2023-03-06T11:45:31.967Z,4.48
2023-03-06T11:47:40.336Z,4.49
2023-03-06T11:49:47.103Z,4.44
2023-03-06T11:51:55.068Z,4.43
2023-03-06T11:54:01.257Z,4.44
2023-03-06T11:56:18.815Z,4.44
2023-03-06T11:58:44.746Z,4.48
2023-03-06T12:00:54.547Z,4.53
2023-03-06T12:03:23.704Z,4.60
2023-03-06T12:05:38.146Z,4.67
2023-03-06T12:07:50.504Z,4.71
2023-03-06T12:10:01.924Z,4.77
2023-03-06T12:12:21.637Z,4.81
2023-03-06T12:14:40.254Z,4.80
2023-03-06T12:16:54.683Z,4.81
2023-03-06T12:19:10.607Z,4.80
2023-03-06T12:21:22.945Z,4.77
2023-03-06T12:23:52.930Z,4.78
2023-03-06T12:26:05.166Z,4.79
2023-03-06T12:28:29.622Z,4.77
2023-03-06T12:30:46.829Z,4.76
2023-03-06T12:32:54.037Z,4.81
2023-03-06T12:35:24.302Z,4.90
2023-03-06T12:37:36.917Z,5.03
2023-03-06T12:40:06.889Z,5.11
2023-03-06T12:42:31.222Z,5.16
2023-03-06T12:44:59.089Z,5.18
2023-03-06T12:47:04.695Z,5.22
2023-03-06T12:49:23.048Z,5.22
2023-03-06T12:51:34.185Z,5.17
2023-03-06T12:53:39.294Z,5.14
2023-03-06T12:55:45.575Z,5.10
2023-03-06T12:57:50.766Z,5.04
2023-03-06T12:59:55.501Z,4.99
2023-03-06T13:02:19.099Z,4.95
2023-03-06T13:04:39.847Z,4.92
2023-03-06T13:06:59.751Z,4.88
2023-03-06T13:09:18.830Z,4.84
2023-03-06T13:11:35.871Z,4.81
2023-03-06T13:13:45.640Z,4.75
2023-03-06T13:16:11.504Z,4.71
2023-03-06T13:18:57.062Z,4.71
2023-03-06T13:21:00.600Z,4.71
2023-03-06T13:23:43.578Z,4.72
2023-03-06T13:25:50.933Z,4.73
2023-03-06T13:28:04.498Z,4.71
2023-03-06T13:30:23.705Z,4.72
2023-03-06T13:32:34.163Z,4.70
2023-03-06T13:34:39.938Z,4.65
2023-03-06T13:36:43.361Z,4.60
2023-03-06T13:39:17.958Z,4.59
2023-03-06T13:41:37.635Z,4.61
2023-03-06T13:43:45.354Z,4.67
2023-03-06T13:45:51.589Z,4.70
2023-03-06T13:50:37.826Z,4.83
2023-03-06T13:52:55.168Z,4.91
2023-03-06T13:55:06.525Z,5.01
2023-03-06T13:57:33.498Z,5.10
2023-03-06T14:00:08.387Z,5.16
2023-03-06T14:02:38.925Z,5.21
2023-03-06T14:04:54.631Z,5.26
2023-03-06T14:07:12.744Z,5.33
2023-03-06T14:09:25.792Z,5.39
2023-03-06T14:11:29.698Z,5.45
2023-03-06T14:13:46.586Z,5.50
2023-03-06T14:15:52.703Z,5.53
2023-03-06T14:18:01.931Z,5.55
2023-03-06T14:20:15.228Z,5.60
2023-03-06T14:22:22.277Z,5.65
2023-03-06T14:24:34.484Z,5.68
2023-03-06T14:26:44.236Z,5.67
2023-03-06T14:28:56.477Z,5.62
2023-03-06T14:31:02.344Z,5.55
2023-03-06T14:33:12.379Z,5.47
2023-03-06T14:35:34.490Z,5.40
2023-03-06T14:37:39.096Z,5.32
2023-03-06T14:39:44.829Z,5.22
2023-03-06T14:41:48.289Z,5.11
2023-03-06T14:43:51.868Z,5.09
2023-03-06T14:45:57.896Z,5.07
2023-03-06T14:48:01.798Z,5.05
2023-03-06T14:50:27.434Z,5.03
2023-03-06T14:52:37.417Z,5.02
2023-03-06T14:54:46.193Z,5.03
2023-03-06T14:56:53.269Z,5.03
2023-03-06T14:59:00.667Z,5.02
2023-03-06T15:01:07.075Z,4.99
2023-03-06T15:03:17.759Z,4.98
2023-03-06T15:05:26.287Z,4.95
2023-03-06T15:07:33.777Z,4.88
2023-03-06T15:09:38.724Z,4.82
2023-03-06T15:11:59.883Z,4.78
2023-03-06T15:14:05.433Z,4.79
2023-03-06T15:16:23.866Z,4.77
2023-03-06T15:18:29.975Z,4.77
2023-03-06T15:20:42.600Z,4.82
2023-03-06T15:22:51.687Z,4.86
2023-03-06T15:24:56.539Z,4.89
2023-03-06T15:27:03.035Z,4.94
2023-03-06T15:29:23.460Z,5.00
2023-03-06T15:31:28.296Z,5.06
2023-03-06T15:33:32.130Z,5.10
2023-03-06T15:35:37.966Z,5.12
2023-03-06T15:37:41.780Z,5.11
2023-03-06T15:39:46.959Z,5.15
2023-03-06T15:41:57.135Z,5.17
2023-03-06T15:44:02.117Z,5.20
2023-03-06T15:46:07.719Z,5.21
2023-03-06T15:48:18.150Z,5.23
2023-03-06T15:50:23.464Z,5.24
2023-03-06T15:52:26.937Z,5.25
2023-03-06T15:54:32.784Z,5.24
2023-03-06T15:56:42.059Z,5.23
2023-03-06T15:58:46.071Z,5.24
2023-03-06T16:00:49.546Z,5.23
2023-03-06T16:02:53.551Z,5.19
2023-03-06T16:04:56.986Z,5.15
2023-03-06T16:07:00.413Z,5.09
2023-03-06T16:09:03.823Z,5.02
2023-03-06T16:11:07.394Z,4.95
2023-03-06T16:13:17.387Z,4.87
2023-03-06T16:15:23.188Z,4.80
2023-03-06T16:17:26.725Z,4.72
2023-03-06T16:19:30.714Z,4.65
2023-03-06T16:21:37.118Z,4.60
2023-03-06T16:23:41.831Z,4.54
2023-03-06T16:25:48.798Z,4.48
2023-03-06T16:27:55.579Z,4.40
2023-03-06T16:30:00.361Z,4.32
2023-03-06T16:32:06.496Z,4.25
2023-03-06T16:34:10.042Z,4.17
2023-03-06T16:36:15.675Z,4.11
2023-03-06T16:38:21.411Z,4.05
2023-03-06T16:40:29.163Z,3.98
2023-03-06T16:42:34.992Z,3.92
2023-03-06T16:44:39.508Z,3.87
2023-03-06T16:46:47.912Z,3.81
2023-03-06T16:48:52.816Z,3.74
2023-03-06T16:50:56.270Z,3.69
2023-03-06T16:53:00.391Z,3.64
2023-03-06T16:55:04.481Z,3.59
2023-03-06T16:57:07.954Z,3.55
2023-03-06T16:59:11.912Z,3.50
2023-03-06T17:01:17.596Z,3.46
2023-03-06T17:03:22.446Z,3.40
2023-03-06T17:05:26.185Z,3.36
2023-03-06T17:07:29.725Z,3.32
2023-03-06T17:09:33.180Z,3.29
2023-03-06T17:11:38.572Z,3.26
2023-03-06T17:13:42.241Z,3.25
2023-03-06T17:15:56.259Z,3.23
2023-03-06T17:17:59.856Z,3.21
2023-03-06T17:20:07.142Z,3.18
2023-03-06T17:22:10.505Z,3.16
2023-03-06T17:24:13.917Z,3.15
2023-03-06T17:26:20.049Z,3.14
2023-03-06T17:28:24.131Z,3.12
2023-03-06T17:30:27.538Z,3.11
2023-03-06T17:32:31.016Z,3.12
2023-03-06T17:34:34.778Z,3.10
2023-03-06T17:36:39.652Z,3.09
2023-03-06T17:38:43.622Z,3.08
2023-03-06T17:40:47.063Z,3.09
2023-03-06T17:42:50.679Z,3.08
2023-03-06T17:44:54.081Z,3.06
2023-03-06T17:46:58.005Z,3.04
2023-03-06T17:49:01.586Z,3.02
2023-03-06T17:51:05.504Z,3.01
2023-03-06T17:53:10.310Z,3.01
2023-03-06T17:55:13.833Z,3.01
2023-03-06T17:57:17.279Z,3.00
2023-03-06T17:59:20.806Z,2.98
2023-03-06T18:01:27.520Z,2.97
2023-03-06T18:03:31.058Z,2.97
2023-03-06T18:05:34.520Z,2.96
2023-03-06T18:07:38.058Z,2.95
2023-03-06T18:09:44.219Z,2.95
2023-03-06T18:11:47.651Z,2.95
2023-03-06T18:13:51.829Z,2.94
2023-03-06T18:15:55.363Z,2.93
2023-03-06T18:17:59.322Z,2.91
2023-03-06T18:20:02.828Z,2.89
2023-03-06T18:22:06.229Z,2.86
2023-03-06T18:24:11.366Z,2.84
2023-03-06T18:26:18.762Z,2.81
2023-03-06T18:28:22.207Z,2.78
2023-03-06T18:30:25.748Z,2.75
2023-03-06T18:32:29.269Z,2.70
2023-03-06T18:34:32.799Z,2.67
2023-03-06T18:36:37.059Z,2.65
2023-03-06T18:38:42.994Z,2.63
2023-03-06T18:40:46.384Z,2.62
2023-03-06T18:42:52.906Z,2.59
2023-03-06T18:44:56.289Z,2.58
2023-03-06T18:46:59.749Z,2.56
2023-03-06T18:49:03.710Z,2.54
2023-03-06T18:51:08.241Z,2.54
2023-03-06T18:53:11.651Z,2.53
2023-03-06T18:55:15.132Z,2.51
2023-03-06T18:57:18.583Z,2.49
2023-03-06T18:59:23.533Z,2.48
2023-03-06T19:01:27.237Z,2.45
2023-03-06T19:03:30.648Z,2.44
2023-03-06T19:05:34.014Z,2.43
2023-03-06T19:07:37.450Z,2.41
2023-03-06T19:09:42.797Z,2.39
2023-03-06T19:11:47.012Z,2.38
2023-03-06T19:13:50.530Z,2.38
2023-03-06T19:15:57.170Z,2.36
2023-03-06T19:18:00.932Z,2.34
2023-03-06T19:20:04.523Z,2.32
2023-03-06T19:22:07.905Z,2.30
2023-03-06T19:24:14.055Z,2.28
2023-03-06T19:26:18.723Z,2.28
2023-03-06T19:28:22.343Z,2.26
2023-03-06T19:30:26.265Z,2.25
2023-03-06T19:32:31.239Z,2.22
2023-03-06T19:34:34.869Z,2.20
2023-03-06T19:36:40.883Z,2.19
2023-03-06T19:38:44.554Z,2.16
2023-03-06T19:40:51.566Z,2.15
2023-03-06T19:42:55.101Z,2.14
2023-03-06T19:44:58.528Z,2.12
2023-03-06T19:47:01.960Z,2.12
2023-03-06T19:49:11.845Z,2.09
2023-03-06T19:51:15.467Z,2.08
2023-03-06T19:53:18.932Z,2.07
2023-03-06T19:55:24.347Z,2.06
2023-03-06T19:57:27.761Z,2.06
2023-03-06T19:59:31.169Z,2.06
2023-03-06T20:01:35.362Z,2.05
2023-03-06T20:03:38.831Z,2.05
2023-03-06T20:05:48.843Z,2.05
2023-03-06T20:07:52.330Z,2.04
2023-03-06T20:10:00.359Z,2.04
2023-03-06T20:12:03.857Z,2.02
2023-03-06T20:14:08.850Z,2.02
2023-03-06T20:16:12.256Z,2.03
2023-03-06T20:18:15.834Z,2.03
2023-03-06T20:20:19.550Z,2.03
2023-03-06T20:22:24.344Z,2.03
2023-03-06T20:24:27.925Z,2.02
2023-03-06T20:26:31.625Z,2.03
2023-03-06T20:28:35.416Z,2.00
2023-03-06T20:30:39.668Z,1.97
2023-03-06T20:32:43.052Z,1.96
2023-03-06T20:34:46.475Z,1.94
2023-03-06T20:36:50.293Z,1.92
2023-03-06T20:38:55.120Z,1.88
2023-03-06T20:40:59.761Z,1.86
2023-03-06T20:43:03.714Z,1.83
2023-03-06T20:45:08.342Z,1.80
2023-03-06T20:47:11.691Z,1.78
2023-03-06T20:49:15.777Z,1.74
2023-03-06T20:51:21.121Z,1.73
2023-03-06T20:53:24.479Z,1.72
2023-03-06T20:55:29.338Z,1.70
2023-03-06T20:57:32.902Z,1.69
2023-03-06T20:59:36.269Z,1.68
2023-03-06T21:01:41.803Z,1.69
2023-03-06T21:03:45.282Z,1.70
2023-03-06T21:05:48.774Z,1.71
2023-03-06T21:07:53.574Z,1.72
2023-03-06T21:09:57.126Z,1.73
2023-03-06T21:12:01.951Z,1.74
2023-03-06T21:14:05.508Z,1.77
2023-03-06T21:16:11.084Z,1.77
2023-03-06T21:18:14.669Z,1.79
2023-03-06T21:20:18.275Z,1.83
2023-03-06T21:22:21.648Z,1.83
2023-03-06T21:24:25.028Z,1.84
2023-03-06T21:26:29.968Z,1.87
2023-03-06T21:28:35.473Z,1.87
2023-03-06T21:30:38.882Z,1.88
2023-03-06T21:32:42.583Z,1.91
2023-03-06T21:34:45.975Z,1.92
2023-03-06T21:36:49.471Z,1.94
2023-03-06T21:38:53.725Z,1.96
2023-03-06T21:40:57.775Z,1.98
2023-03-06T21:43:01.445Z,1.99
2023-03-06T21:45:08.523Z,2.01
2023-03-06T21:47:11.928Z,2.01
2023-03-06T21:49:15.298Z,2.03
2023-03-06T21:51:20.670Z,2.04
2023-03-06T21:53:24.082Z,2.05
2023-03-06T21:55:27.613Z,2.08
2023-03-06T21:57:31.218Z,2.10
2023-03-06T21:59:34.952Z,2.12
2023-03-06T22:01:39.855Z,2.14
2023-03-06T22:03:45.789Z,2.16
2023-03-06T22:05:49.218Z,2.16
2023-03-06T22:07:52.639Z,2.17
2023-03-06T22:09:56.215Z,2.20
2023-03-06T22:11:59.855Z,2.19
2023-03-06T22:14:03.406Z,2.21
2023-03-06T22:16:08.433Z,2.22
2023-03-06T22:18:15.892Z,2.22
2023-03-06T22:20:19.535Z,2.25
2023-03-06T22:22:22.980Z,2.25
2023-03-06T22:24:26.432Z,2.27
2023-03-06T22:26:31.207Z,2.28
2023-03-06T22:28:34.852Z,2.30
2023-03-06T22:30:38.385Z,2.33
2023-03-06T22:32:41.847Z,2.35
2023-03-06T22:34:46.654Z,2.36
2023-03-06T22:36:50.069Z,2.38
2023-03-06T22:38:56.400Z,2.41
2023-03-06T22:41:00.085Z,2.42
2023-03-06T22:43:03.531Z,2.44
2023-03-06T22:45:07.779Z,2.45
2023-03-06T22:47:11.201Z,2.43
2023-03-06T22:49:16.985Z,2.41
2023-03-06T22:51:22.346Z,2.35
2023-03-06T22:53:25.721Z,2.29
2023-03-06T22:55:29.121Z,2.22
2023-03-06T22:57:32.488Z,2.16
2023-03-06T22:59:35.909Z,2.11
2023-03-06T23:01:39.411Z,2.03
2023-03-06T23:03:45.601Z,1.99
2023-03-06T23:05:48.963Z,1.93
2023-03-06T23:07:56.546Z,1.88
2023-03-06T23:10:00.171Z,1.84
2023-03-06T23:12:22.558Z,1.79
2023-03-06T23:14:49.575Z,1.76
2023-03-06T23:17:11.681Z,1.72
2023-03-06T23:19:33.754Z,1.68
2023-03-06T23:21:55.832Z,1.64
2023-03-06T23:24:19.344Z,1.59
2023-03-06T23:26:25.576Z,1.55
2023-03-06T23:28:29.778Z,1.51
2023-03-06T23:30:33.436Z,1.49
2023-03-06T23:32:37.119Z,1.45
2023-03-06T23:34:41.000Z,1.45
2023-03-06T23:36:44.539Z,1.43
2023-03-06T23:38:48.057Z,1.42
2023-03-06T23:40:52.825Z,1.41
2023-03-06T23:42:56.269Z,1.39
2023-03-06T23:44:59.737Z,1.39
2023-03-06T23:47:03.178Z,1.38
2023-03-06T23:49:07.433Z,1.38
2023-03-06T23:51:15.229Z,1.38
2023-03-06T23:53:18.889Z,1.35
2023-03-06T23:55:22.708Z,1.35
2023-03-06T23:57:27.635Z,1.36
2023-03-06T23:59:30.992Z,1.35
